TKPK Airport Information

Runway Information
Runway 07 Length 7602 ft width 148 ft
Elevation 168 ft Threshold 200 ft Heading 57
Runway 25 Length 7602 ft Width 148 ft
Elevation 161 ft Threshold 0 ft Heading 237
Airport Frequencies
Type APP Name APP Frequency 119.6 MHZ
Type GND Name GND Frequency 121.9 MHZ
Type TWR Name TWR Frequency 118.3 MHZ
Airport Navaids
Type NDB-DME Name Bradshaw Frequency 325 KHZ
Airport Weather Information & NOTAM
ADDS - METARS form results

(1127 UTC 21 April 2018)
 
METAR text: TKPK 211100Z 08014KT 9999 VCSH FEW017 BKN045 25/20 Q1018
Conditions at: TKPK (GOLDEN ROCKS/NEV, KN) observed 1100 UTC 21 April 2018
Temperature: 25.0°C (77°F)
Dewpoint: 20.0°C (68°F) [RH = 74%]
Pressure (altimeter): 30.06 inches Hg (1018.0 mb)
Winds: from the E (80 degrees) at 16 MPH (14 knots; 7.3 m/s)
Visibility: 6 or more miles (10+ km)
Ceiling: 4500 feet AGL
Clouds: few clouds at 1700 feet AGL
broken clouds at 4500 feet AGL
Weather: VCSH  (showers in vicinity)